sensor_id;sensor_type;location;lat;lon;timestamp;temperature;humidity
1405;DHT22;697;51.114;6.542;2023-10-13T00:01:47;19.30;99.90
1405;DHT22;697;51.114;6.542;2023-10-13T00:04:14;19.30;99.90
1405;DHT22;697;51.114;6.542;2023-10-13T00:06:40;19.30;99.90
1405;DHT22;697;51.114;6.542;2023-10-13T00:09:08;19.30;99.90
1405;DHT22;697;51.114;6.542;2023-10-13T00:11:41;19.30;99.90
1405;DHT22;697;51.114;6.542;2023-10-13T00:14:10;19.30;99.90
1405;DHT22;697;51.114;6.542;2023-10-13T00:16:42;19.30;99.90
1405;DHT22;697;51.114;6.542;2023-10-13T00:19:27;19.30;99.90
1405;DHT22;697;51.114;6.542;2023-10-13T00:21:53;19.30;99.90
1405;DHT22;697;51.114;6.542;2023-10-13T00:24:21;19.30;99.90
1405;DHT22;697;51.114;6.542;2023-10-13T00:26:55;19.30;99.90
1405;DHT22;697;51.114;6.542;2023-10-13T00:29:23;19.30;99.90
1405;DHT22;697;51.114;6.542;2023-10-13T00:31:56;19.30;99.90
1405;DHT22;697;51.114;6.542;2023-10-13T00:34:23;19.30;99.90
1405;DHT22;697;51.114;6.542;2023-10-13T00:36:53;19.30;99.90
1405;DHT22;697;51.114;6.542;2023-10-13T00:39:33;19.40;99.90
1405;DHT22;697;51.114;6.542;2023-10-13T00:42:02;19.40;99.90
1405;DHT22;697;51.114;6.542;2023-10-13T00:44:32;19.30;99.90
1405;DHT22;697;51.114;6.542;2023-10-13T00:47:05;19.30;99.90
1405;DHT22;697;51.114;6.542;2023-10-13T00:49:33;19.30;99.90
1405;DHT22;697;51.114;6.542;2023-10-13T00:52:05;19.30;99.90
1405;DHT22;697;51.114;6.542;2023-10-13T00:54:31;19.40;99.90
1405;DHT22;697;51.114;6.542;2023-10-13T00:57:01;19.30;99.90
1405;DHT22;697;51.114;6.542;2023-10-13T00:59:29;19.40;99.90
1405;DHT22;697;51.114;6.542;2023-10-13T01:01:59;19.40;99.90
1405;DHT22;697;51.114;6.542;2023-10-13T01:04:37;19.40;99.90
1405;DHT22;697;51.114;6.542;2023-10-13T01:07:03;19.40;99.90
1405;DHT22;697;51.114;6.542;2023-10-13T01:09:29;19.40;99.90
1405;DHT22;697;51.114;6.542;2023-10-13T01:12:07;19.40;99.90
1405;DHT22;697;51.114;6.542;2023-10-13T01:14:34;19.40;99.90
1405;DHT22;697;51.114;6.542;2023-10-13T01:17:01;19.40;99.90
1405;DHT22;697;51.114;6.542;2023-10-13T01:19:27;19.40;99.90
1405;DHT22;697;51.114;6.542;2023-10-13T01:21:55;19.40;99.90
1405;DHT22;697;51.114;6.542;2023-10-13T01:24:29;19.40;99.90
1405;DHT22;697;51.114;6.542;2023-10-13T01:26:56;19.40;99.90
1405;DHT22;697;51.114;6.542;2023-10-13T01:29:22;19.40;99.90
1405;DHT22;697;51.114;6.542;2023-10-13T01:31:54;19.40;99.90
1405;DHT22;697;51.114;6.542;2023-10-13T01:34:20;19.40;99.90
1405;DHT22;697;51.114;6.542;2023-10-13T01:36:49;19.40;99.90
1405;DHT22;697;51.114;6.542;2023-10-13T01:39:16;19.40;99.90
1405;DHT22;697;51.114;6.542;2023-10-13T01:41:44;19.40;99.90
1405;DHT22;697;51.114;6.542;2023-10-13T01:44:10;19.40;99.90
1405;DHT22;697;51.114;6.542;2023-10-13T01:46:38;19.40;99.90
1405;DHT22;697;51.114;6.542;2023-10-13T01:49:03;19.40;99.90
1405;DHT22;697;51.114;6.542;2023-10-13T01:51:30;19.40;99.90
1405;DHT22;697;51.114;6.542;2023-10-13T01:53:56;19.40;99.90
1405;DHT22;697;51.114;6.542;2023-10-13T01:56:23;19.40;99.90
1405;DHT22;697;51.114;6.542;2023-10-13T01:58:50;19.40;99.90
1405;DHT22;697;51.114;6.542;2023-10-13T02:01:19;19.40;99.90
1405;DHT22;697;51.114;6.542;2023-10-13T02:03:52;19.40;99.90
1405;DHT22;697;51.114;6.542;2023-10-13T02:06:27;19.40;99.90
1405;DHT22;697;51.114;6.542;2023-10-13T02:08:58;19.40;99.90
1405;DHT22;697;51.114;6.542;2023-10-13T02:11:31;19.40;99.90
1405;DHT22;697;51.114;6.542;2023-10-13T02:13:58;19.30;99.90
1405;DHT22;697;51.114;6.542;2023-10-13T02:16:25;19.30;99.90
1405;DHT22;697;51.114;6.542;2023-10-13T02:18:51;19.30;99.90
1405;DHT22;697;51.114;6.542;2023-10-13T02:21:18;19.30;99.90
1405;DHT22;697;51.114;6.542;2023-10-13T02:23:44;19.30;99.90
1405;DHT22;697;51.114;6.542;2023-10-13T02:26:11;19.40;99.90
1405;DHT22;697;51.114;6.542;2023-10-13T02:28:38;19.30;99.90
1405;DHT22;697;51.114;6.542;2023-10-13T02:31:06;19.30;99.90
1405;DHT22;697;51.114;6.542;2023-10-13T02:33:32;19.30;99.90
1405;DHT22;697;51.114;6.542;2023-10-13T02:36:01;19.30;99.90
1405;DHT22;697;51.114;6.542;2023-10-13T02:38:30;19.40;99.90
1405;DHT22;697;51.114;6.542;2023-10-13T02:41:00;19.40;99.90
1405;DHT22;697;51.114;6.542;2023-10-13T02:43:33;19.40;99.90
1405;DHT22;697;51.114;6.542;2023-10-13T02:46:00;19.40;99.90
1405;DHT22;697;51.114;6.542;2023-10-13T02:48:28;19.40;99.90
1405;DHT22;697;51.114;6.542;2023-10-13T02:51:06;19.40;99.90
1405;DHT22;697;51.114;6.542;2023-10-13T02:53:35;19.40;99.90
1405;DHT22;697;51.114;6.542;2023-10-13T02:56:01;19.40;99.90
1405;DHT22;697;51.114;6.542;2023-10-13T02:58:30;19.40;99.90
1405;DHT22;697;51.114;6.542;2023-10-13T03:01:06;19.40;99.90
1405;DHT22;697;51.114;6.542;2023-10-13T03:03:44;19.40;99.90
1405;DHT22;697;51.114;6.542;2023-10-13T03:06:13;19.40;99.90
1405;DHT22;697;51.114;6.542;2023-10-13T03:08:40;19.40;99.90
1405;DHT22;697;51.114;6.542;2023-10-13T03:11:09;19.40;99.90
1405;DHT22;697;51.114;6.542;2023-10-13T03:13:35;19.40;99.90
1405;DHT22;697;51.114;6.542;2023-10-13T03:16:11;19.40;99.90
1405;DHT22;697;51.114;6.542;2023-10-13T03:18:37;19.40;99.90
1405;DHT22;697;51.114;6.542;2023-10-13T03:21:05;19.40;99.90
1405;DHT22;697;51.114;6.542;2023-10-13T03:23:33;19.40;99.90
1405;DHT22;697;51.114;6.542;2023-10-13T03:26:11;19.40;99.90
1405;DHT22;697;51.114;6.542;2023-10-13T03:28:37;19.40;99.90
1405;DHT22;697;51.114;6.542;2023-10-13T03:31:04;19.40;99.90
1405;DHT22;697;51.114;6.542;2023-10-13T03:33:33;19.30;99.90
1405;DHT22;697;51.114;6.542;2023-10-13T03:35:59;19.40;99.90
1405;DHT22;697;51.114;6.542;2023-10-13T03:38:32;19.40;99.90
1405;DHT22;697;51.114;6.542;2023-10-13T03:41:02;19.40;99.90
1405;DHT22;697;51.114;6.542;2023-10-13T03:43:37;19.40;99.90
1405;DHT22;697;51.114;6.542;2023-10-13T03:46:11;19.20;99.90
1405;DHT22;697;51.114;6.542;2023-10-13T03:48:38;19.30;99.90
1405;DHT22;697;51.114;6.542;2023-10-13T03:51:17;19.20;99.90
1405;DHT22;697;51.114;6.542;2023-10-13T03:53:46;19.30;99.90
1405;DHT22;697;51.114;6.542;2023-10-13T03:56:19;19.30;99.90
1405;DHT22;697;51.114;6.542;2023-10-13T03:58:53;19.30;99.90
1405;DHT22;697;51.114;6.542;2023-10-13T04:01:23;19.30;99.90
1405;DHT22;697;51.114;6.542;2023-10-13T04:03:57;19.40;99.90
1405;DHT22;697;51.114;6.542;2023-10-13T04:06:29;19.40;99.90
1405;DHT22;697;51.114;6.542;2023-10-13T04:09:13;19.40;99.90
1405;DHT22;697;51.114;6.542;2023-10-13T04:11:57;19.40;99.90
1405;DHT22;697;51.114;6.542;2023-10-13T04:14:44;19.40;99.90
1405;DHT22;697;51.114;6.542;2023-10-13T04:17:42;19.50;99.90
1405;DHT22;697;51.114;6.542;2023-10-13T04:20:11;19.50;99.90
1405;DHT22;697;51.114;6.542;2023-10-13T04:22:53;19.50;99.90
1405;DHT22;697;51.114;6.542;2023-10-13T04:25:40;19.40;99.90
1405;DHT22;697;51.114;6.542;2023-10-13T04:28:35;19.40;99.90
1405;DHT22;697;51.114;6.542;2023-10-13T04:31:03;19.50;99.90
1405;DHT22;697;51.114;6.542;2023-10-13T04:33:40;19.50;99.90
1405;DHT22;697;51.114;6.542;2023-10-13T04:36:18;19.50;99.90
1405;DHT22;697;51.114;6.542;2023-10-13T04:39:02;19.50;99.90
1405;DHT22;697;51.114;6.542;2023-10-13T04:41:37;19.60;99.90
1405;DHT22;697;51.114;6.542;2023-10-13T04:44:05;19.50;99.90
1405;DHT22;697;51.114;6.542;2023-10-13T04:46:51;19.50;99.90
1405;DHT22;697;51.114;6.542;2023-10-13T04:49:34;19.50;99.90
1405;DHT22;697;51.114;6.542;2023-10-13T04:52:02;19.60;99.90
1405;DHT22;697;51.114;6.542;2023-10-13T04:54:39;19.50;99.90
1405;DHT22;697;51.114;6.542;2023-10-13T04:57:12;19.60;99.90
1405;DHT22;697;51.114;6.542;2023-10-13T04:59:57;19.50;99.90
1405;DHT22;697;51.114;6.542;2023-10-13T05:02:47;19.50;99.90
1405;DHT22;697;51.114;6.542;2023-10-13T05:05:27;19.50;99.90
1405;DHT22;697;51.114;6.542;2023-10-13T05:08:29;19.50;99.90
1405;DHT22;697;51.114;6.542;2023-10-13T05:11:14;19.50;99.90
1405;DHT22;697;51.114;6.542;2023-10-13T05:13:59;19.50;99.90
1405;DHT22;697;51.114;6.542;2023-10-13T05:16:43;19.50;99.90
1405;DHT22;697;51.114;6.542;2023-10-13T05:19:27;19.50;99.90
1405;DHT22;697;51.114;6.542;2023-10-13T05:22:11;19.50;99.90
1405;DHT22;697;51.114;6.542;2023-10-13T05:24:56;19.50;99.90
1405;DHT22;697;51.114;6.542;2023-10-13T05:27:40;19.50;99.90
1405;DHT22;697;51.114;6.542;2023-10-13T05:30:25;19.50;99.90
1405;DHT22;697;51.114;6.542;2023-10-13T05:33:09;19.50;99.90
1405;DHT22;697;51.114;6.542;2023-10-13T05:35:53;19.50;99.90
1405;DHT22;697;51.114;6.542;2023-10-13T05:38:37;19.50;99.90
1405;DHT22;697;51.114;6.542;2023-10-13T05:41:22;19.50;99.90
1405;DHT22;697;51.114;6.542;2023-10-13T05:44:06;19.40;99.90
1405;DHT22;697;51.114;6.542;2023-10-13T05:46:52;19.40;99.90
1405;DHT22;697;51.114;6.542;2023-10-13T05:49:36;19.40;99.90
1405;DHT22;697;51.114;6.542;2023-10-13T05:52:18;19.40;99.90
1405;DHT22;697;51.114;6.542;2023-10-13T05:55:02;19.50;99.90
1405;DHT22;697;51.114;6.542;2023-10-13T05:57:46;19.50;99.90
1405;DHT22;697;51.114;6.542;2023-10-13T06:00:30;19.50;99.90
1405;DHT22;697;51.114;6.542;2023-10-13T06:03:15;19.50;99.90
1405;DHT22;697;51.114;6.542;2023-10-13T06:05:59;19.50;99.90
1405;DHT22;697;51.114;6.542;2023-10-13T06:08:43;19.50;99.90
1405;DHT22;697;51.114;6.542;2023-10-13T06:11:27;19.60;99.90
1405;DHT22;697;51.114;6.542;2023-10-13T06:14:23;19.60;99.90
1405;DHT22;697;51.114;6.542;2023-10-13T06:17:07;19.60;99.90
1405;DHT22;697;51.114;6.542;2023-10-13T06:19:53;19.70;99.90
1405;DHT22;697;51.114;6.542;2023-10-13T06:22:37;19.60;99.90
1405;DHT22;697;51.114;6.542;2023-10-13T06:25:21;19.70;99.90
1405;DHT22;697;51.114;6.542;2023-10-13T06:28:05;19.70;99.90
1405;DHT22;697;51.114;6.542;2023-10-13T06:30:57;19.70;99.90
1405;DHT22;697;51.114;6.542;2023-10-13T06:33:24;19.60;99.90
1405;DHT22;697;51.114;6.542;2023-10-13T06:35:56;19.60;99.90
1405;DHT22;697;51.114;6.542;2023-10-13T06:38:23;19.60;99.90
1405;DHT22;697;51.114;6.542;2023-10-13T06:40:52;19.60;99.90
1405;DHT22;697;51.114;6.542;2023-10-13T06:43:19;19.70;99.90
1405;DHT22;697;51.114;6.542;2023-10-13T06:45:47;19.70;99.90
1405;DHT22;697;51.114;6.542;2023-10-13T06:48:23;19.70;99.90
1405;DHT22;697;51.114;6.542;2023-10-13T06:50:50;19.70;99.90
1405;DHT22;697;51.114;6.542;2023-10-13T06:53:19;19.70;99.90
1405;DHT22;697;51.114;6.542;2023-10-13T06:55:46;19.70;99.90
1405;DHT22;697;51.114;6.542;2023-10-13T06:58:14;19.80;99.90
1405;DHT22;697;51.114;6.542;2023-10-13T07:00:43;19.80;99.90
1405;DHT22;697;51.114;6.542;2023-10-13T07:03:18;19.70;99.90
1405;DHT22;697;51.114;6.542;2023-10-13T07:05:45;19.70;99.90
1405;DHT22;697;51.114;6.542;2023-10-13T07:08:14;19.70;99.90
1405;DHT22;697;51.114;6.542;2023-10-13T07:10:50;19.70;99.90
1405;DHT22;697;51.114;6.542;2023-10-13T07:13:27;19.70;99.90
1405;DHT22;697;51.114;6.542;2023-10-13T07:15:55;19.70;99.90
1405;DHT22;697;51.114;6.542;2023-10-13T07:18:26;19.70;99.90
1405;DHT22;697;51.114;6.542;2023-10-13T07:21:01;19.70;99.90
1405;DHT22;697;51.114;6.542;2023-10-13T07:23:35;19.70;99.90
1405;DHT22;697;51.114;6.542;2023-10-13T07:26:05;19.70;99.90
1405;DHT22;697;51.114;6.542;2023-10-13T07:28:34;19.70;99.90
1405;DHT22;697;51.114;6.542;2023-10-13T07:31:01;19.80;99.90
1405;DHT22;697;51.114;6.542;2023-10-13T07:33:38;19.80;99.90
1405;DHT22;697;51.114;6.542;2023-10-13T07:36:08;19.90;99.90
1405;DHT22;697;51.114;6.542;2023-10-13T07:38:41;20.00;99.90
1405;DHT22;697;51.114;6.542;2023-10-13T07:41:10;20.10;99.90
1405;DHT22;697;51.114;6.542;2023-10-13T07:43:41;20.20;99.90
1405;DHT22;697;51.114;6.542;2023-10-13T07:46:08;20.30;99.90
1405;DHT22;697;51.114;6.542;2023-10-13T07:48:36;20.30;99.90
1405;DHT22;697;51.114;6.542;2023-10-13T07:51:04;20.30;99.90
1405;DHT22;697;51.114;6.542;2023-10-13T07:53:35;20.30;99.90
1405;DHT22;697;51.114;6.542;2023-10-13T07:56:05;20.30;99.90
1405;DHT22;697;51.114;6.542;2023-10-13T07:58:35;20.30;99.90
1405;DHT22;697;51.114;6.542;2023-10-13T08:01:13;20.40;99.90
1405;DHT22;697;51.114;6.542;2023-10-13T08:03:44;20.40;99.90
1405;DHT22;697;51.114;6.542;2023-10-13T08:06:12;20.50;99.90
1405;DHT22;697;51.114;6.542;2023-10-13T08:08:54;20.60;99.90
1405;DHT22;697;51.114;6.542;2023-10-13T08:11:24;20.60;99.90
1405;DHT22;697;51.114;6.542;2023-10-13T08:13:55;20.60;99.90
1405;DHT22;697;51.114;6.542;2023-10-13T08:16:25;20.70;99.90
1405;DHT22;697;51.114;6.542;2023-10-13T08:18:56;20.80;99.90
1405;DHT22;697;51.114;6.542;2023-10-13T08:21:22;20.90;99.90
1405;DHT22;697;51.114;6.542;2023-10-13T08:23:49;21.00;99.90
1405;DHT22;697;51.114;6.542;2023-10-13T08:26:31;21.00;99.90
1405;DHT22;697;51.114;6.542;2023-10-13T08:29:17;21.10;99.90
1405;DHT22;697;51.114;6.542;2023-10-13T08:32:01;21.20;99.90
1405;DHT22;697;51.114;6.542;2023-10-13T08:34:40;21.30;99.10
1405;DHT22;697;51.114;6.542;2023-10-13T08:37:26;21.40;98.40
1405;DHT22;697;51.114;6.542;2023-10-13T08:39:56;21.40;98.20
1405;DHT22;697;51.114;6.542;2023-10-13T08:42:44;21.50;98.40
1405;DHT22;697;51.114;6.542;2023-10-13T08:45:37;21.50;97.90
1405;DHT22;697;51.114;6.542;2023-10-13T08:48:26;21.60;97.20
1405;DHT22;697;51.114;6.542;2023-10-13T08:50:58;21.70;96.90
1405;DHT22;697;51.114;6.542;2023-10-13T08:53:31;21.90;96.70
1405;DHT22;697;51.114;6.542;2023-10-13T08:56:00;22.00;95.20
1405;DHT22;697;51.114;6.542;2023-10-13T08:58:32;22.10;94.60
1405;DHT22;697;51.114;6.542;2023-10-13T09:01:17;22.30;94.30
1405;DHT22;697;51.114;6.542;2023-10-13T09:03:58;22.50;94.20
1405;DHT22;697;51.114;6.542;2023-10-13T09:06:46;22.70;93.70
1405;DHT22;697;51.114;6.542;2023-10-13T09:09:13;22.90;92.60
1405;DHT22;697;51.114;6.542;2023-10-13T09:11:59;23.00;92.50
1405;DHT22;697;51.114;6.542;2023-10-13T09:14:34;23.10;92.60
1405;DHT22;697;51.114;6.542;2023-10-13T09:17:06;23.20;91.70
1405;DHT22;697;51.114;6.542;2023-10-13T09:19:47;23.20;90.80
1405;DHT22;697;51.114;6.542;2023-10-13T09:22:21;23.30;91.20
1405;DHT22;697;51.114;6.542;2023-10-13T09:24:53;23.30;90.70
1405;DHT22;697;51.114;6.542;2023-10-13T09:27:24;23.40;90.30
1405;DHT22;697;51.114;6.542;2023-10-13T09:29:56;23.50;90.20
1405;DHT22;697;51.114;6.542;2023-10-13T09:32:24;23.60;89.60
1405;DHT22;697;51.114;6.542;2023-10-13T09:34:50;23.70;89.90
1405;DHT22;697;51.114;6.542;2023-10-13T09:37:17;23.80;87.50
1405;DHT22;697;51.114;6.542;2023-10-13T09:39:46;23.90;88.00
1405;DHT22;697;51.114;6.542;2023-10-13T09:42:18;23.90;87.80
1405;DHT22;697;51.114;6.542;2023-10-13T09:44:44;23.90;86.80
1405;DHT22;697;51.114;6.542;2023-10-13T09:47:20;24.20;86.90
1405;DHT22;697;51.114;6.542;2023-10-13T09:49:53;24.40;85.80
1405;DHT22;697;51.114;6.542;2023-10-13T09:52:30;24.60;85.60
1405;DHT22;697;51.114;6.542;2023-10-13T09:55:04;24.60;83.50
1405;DHT22;697;51.114;6.542;2023-10-13T09:57:41;24.60;82.90
1405;DHT22;697;51.114;6.542;2023-10-13T10:00:12;24.70;82.40
1405;DHT22;697;51.114;6.542;2023-10-13T10:02:55;24.70;82.70
1405;DHT22;697;51.114;6.542;2023-10-13T10:05:26;24.70;82.10
1405;DHT22;697;51.114;6.542;2023-10-13T10:07:55;24.90;82.50
1405;DHT22;697;51.114;6.542;2023-10-13T10:10:30;25.00;82.10
1405;DHT22;697;51.114;6.542;2023-10-13T10:13:07;25.10;79.50
1405;DHT22;697;51.114;6.542;2023-10-13T10:15:44;25.10;80.20
1405;DHT22;697;51.114;6.542;2023-10-13T10:18:18;25.20;79.20
1405;DHT22;697;51.114;6.542;2023-10-13T10:20:49;25.20;79.10
1405;DHT22;697;51.114;6.542;2023-10-13T10:23:24;25.20;77.80
1405;DHT22;697;51.114;6.542;2023-10-13T10:25:53;25.30;76.70
1405;DHT22;697;51.114;6.542;2023-10-13T10:28:35;25.50;76.20
1405;DHT22;697;51.114;6.542;2023-10-13T10:31:04;25.70;75.80
1405;DHT22;697;51.114;6.542;2023-10-13T10:33:31;25.80;75.30
1405;DHT22;697;51.114;6.542;2023-10-13T10:36:01;25.80;72.80
1405;DHT22;697;51.114;6.542;2023-10-13T10:38:28;25.90;73.60
1405;DHT22;697;51.114;6.542;2023-10-13T10:41:00;26.00;73.90
1405;DHT22;697;51.114;6.542;2023-10-13T10:43:35;26.10;72.60
1405;DHT22;697;51.114;6.542;2023-10-13T10:46:08;26.30;70.80
1405;DHT22;697;51.114;6.542;2023-10-13T10:48:36;26.70;68.70
1405;DHT22;697;51.114;6.542;2023-10-13T10:51:10;27.10;67.50
1405;DHT22;697;51.114;6.542;2023-10-13T10:53:47;27.20;65.30
1405;DHT22;697;51.114;6.542;2023-10-13T10:56:15;27.40;65.00
1405;DHT22;697;51.114;6.542;2023-10-13T10:59:03;27.30;64.00
1405;DHT22;697;51.114;6.542;2023-10-13T11:01:31;27.10;63.90
1405;DHT22;697;51.114;6.542;2023-10-13T11:04:05;26.90;63.50
1405;DHT22;697;51.114;6.542;2023-10-13T11:06:36;26.60;64.00
1405;DHT22;697;51.114;6.542;2023-10-13T11:09:07;26.50;66.30
1405;DHT22;697;51.114;6.542;2023-10-13T11:11:45;26.30;65.60
1405;DHT22;697;51.114;6.542;2023-10-13T11:14:20;26.10;67.40
1405;DHT22;697;51.114;6.542;2023-10-13T11:16:49;25.90;67.80
1405;DHT22;697;51.114;6.542;2023-10-13T11:19:19;25.70;67.70
1405;DHT22;697;51.114;6.542;2023-10-13T11:21:54;25.60;68.70
1405;DHT22;697;51.114;6.542;2023-10-13T11:24:21;25.60;70.10
1405;DHT22;697;51.114;6.542;2023-10-13T11:26:49;25.60;70.50
1405;DHT22;697;51.114;6.542;2023-10-13T11:29:16;25.60;69.70
1405;DHT22;697;51.114;6.542;2023-10-13T11:31:46;25.60;68.60
1405;DHT22;697;51.114;6.542;2023-10-13T11:34:19;25.70;68.90
1405;DHT22;697;51.114;6.542;2023-10-13T11:36:45;25.70;68.60
1405;DHT22;697;51.114;6.542;2023-10-13T11:39:13;25.80;69.10
1405;DHT22;697;51.114;6.542;2023-10-13T11:41:44;25.70;68.30
1405;DHT22;697;51.114;6.542;2023-10-13T11:44:19;25.70;66.70
1405;DHT22;697;51.114;6.542;2023-10-13T11:46:57;25.70;68.10
1405;DHT22;697;51.114;6.542;2023-10-13T11:49:40;25.50;68.60
1405;DHT22;697;51.114;6.542;2023-10-13T11:52:07;25.40;68.40
1405;DHT22;697;51.114;6.542;2023-10-13T11:54:44;25.40;69.40
1405;DHT22;697;51.114;6.542;2023-10-13T11:57:12;25.30;69.90
1405;DHT22;697;51.114;6.542;2023-10-13T11:59:42;25.30;69.30
1405;DHT22;697;51.114;6.542;2023-10-13T12:02:19;25.30;69.60
1405;DHT22;697;51.114;6.542;2023-10-13T12:05:04;25.20;70.40
1405;DHT22;697;51.114;6.542;2023-10-13T12:07:37;25.20;69.70
1405;DHT22;697;51.114;6.542;2023-10-13T12:10:12;25.20;70.00
1405;DHT22;697;51.114;6.542;2023-10-13T12:12:46;25.10;69.90
1405;DHT22;697;51.114;6.542;2023-10-13T12:15:19;25.10;70.10
1405;DHT22;697;51.114;6.542;2023-10-13T12:17:56;25.20;69.70
1405;DHT22;697;51.114;6.542;2023-10-13T12:20:23;25.20;70.10
1405;DHT22;697;51.114;6.542;2023-10-13T12:22:59;25.20;69.40
1405;DHT22;697;51.114;6.542;2023-10-13T12:25:39;25.20;69.00
1405;DHT22;697;51.114;6.542;2023-10-13T12:28:23;25.30;69.40
1405;DHT22;697;51.114;6.542;2023-10-13T12:30:53;25.30;68.10
1405;DHT22;697;51.114;6.542;2023-10-13T12:33:20;25.20;69.10
1405;DHT22;697;51.114;6.542;2023-10-13T12:36:03;25.30;69.10
1405;DHT22;697;51.114;6.542;2023-10-13T12:38:33;25.20;68.10
1405;DHT22;697;51.114;6.542;2023-10-13T12:41:49;25.20;68.20
1405;DHT22;697;51.114;6.542;2023-10-13T12:44:33;25.30;66.30
1405;DHT22;697;51.114;6.542;2023-10-13T12:47:17;25.40;66.20
1405;DHT22;697;51.114;6.542;2023-10-13T12:50:01;25.30;65.20
1405;DHT22;697;51.114;6.542;2023-10-13T12:52:40;25.30;64.10
1405;DHT22;697;51.114;6.542;2023-10-13T12:55:10;25.20;63.80
1405;DHT22;697;51.114;6.542;2023-10-13T12:57:40;25.10;64.40
1405;DHT22;697;51.114;6.542;2023-10-13T13:00:11;25.10;65.40
1405;DHT22;697;51.114;6.542;2023-10-13T13:02:47;25.10;64.20
1405;DHT22;697;51.114;6.542;2023-10-13T13:05:16;25.20;64.60
1405;DHT22;697;51.114;6.542;2023-10-13T13:07:47;25.20;63.80
1405;DHT22;697;51.114;6.542;2023-10-13T13:10:18;25.30;63.00
1405;DHT22;697;51.114;6.542;2023-10-13T13:12:46;25.30;61.50
1405;DHT22;697;51.114;6.542;2023-10-13T13:15:13;25.50;61.80
1405;DHT22;697;51.114;6.542;2023-10-13T13:17:40;25.60;60.80
1405;DHT22;697;51.114;6.542;2023-10-13T13:20:08;25.60;61.40
1405;DHT22;697;51.114;6.542;2023-10-13T13:22:51;25.50;60.70
1405;DHT22;697;51.114;6.542;2023-10-13T13:25:19;25.40;61.90
1405;DHT22;697;51.114;6.542;2023-10-13T13:27:52;25.40;61.50
1405;DHT22;697;51.114;6.542;2023-10-13T13:30:19;25.30;61.00
1405;DHT22;697;51.114;6.542;2023-10-13T13:32:47;25.10;60.90
1405;DHT22;697;51.114;6.542;2023-10-13T13:35:14;25.00;62.70
1405;DHT22;697;51.114;6.542;2023-10-13T13:37:44;25.00;63.30
1405;DHT22;697;51.114;6.542;2023-10-13T13:40:11;24.90;63.40
1405;DHT22;697;51.114;6.542;2023-10-13T13:42:41;24.90;63.10
1405;DHT22;697;51.114;6.542;2023-10-13T13:45:13;24.90;63.50
1405;DHT22;697;51.114;6.542;2023-10-13T13:47:47;24.80;62.70
1405;DHT22;697;51.114;6.542;2023-10-13T13:50:19;24.90;63.30
1405;DHT22;697;51.114;6.542;2023-10-13T13:52:51;24.90;61.60
1405;DHT22;697;51.114;6.542;2023-10-13T13:55:19;24.90;62.00
1405;DHT22;697;51.114;6.542;2023-10-13T13:57:47;24.90;62.60
1405;DHT22;697;51.114;6.542;2023-10-13T14:00:17;24.80;62.90
1405;DHT22;697;51.114;6.542;2023-10-13T14:02:48;24.80;63.10
1405;DHT22;697;51.114;6.542;2023-10-13T14:05:16;24.70;62.60
1405;DHT22;697;51.114;6.542;2023-10-13T14:07:43;24.60;62.40
1405;DHT22;697;51.114;6.542;2023-10-13T14:10:15;24.50;63.30
1405;DHT22;697;51.114;6.542;2023-10-13T14:12:57;24.50;62.90
1405;DHT22;697;51.114;6.542;2023-10-13T14:15:33;24.50;62.40
1405;DHT22;697;51.114;6.542;2023-10-13T14:18:06;24.40;62.00
1405;DHT22;697;51.114;6.542;2023-10-13T14:20:38;24.30;62.50
1405;DHT22;697;51.114;6.542;2023-10-13T14:23:06;24.30;62.90
1405;DHT22;697;51.114;6.542;2023-10-13T14:25:35;24.20;63.60
1405;DHT22;697;51.114;6.542;2023-10-13T14:28:04;24.10;63.40
1405;DHT22;697;51.114;6.542;2023-10-13T14:30:30;24.10;64.40
1405;DHT22;697;51.114;6.542;2023-10-13T14:32:59;24.00;63.90
1405;DHT22;697;51.114;6.542;2023-10-13T14:35:26;24.00;64.10
1405;DHT22;697;51.114;6.542;2023-10-13T14:37:53;23.90;64.20
1405;DHT22;697;51.114;6.542;2023-10-13T14:40:20;23.90;64.90
1405;DHT22;697;51.114;6.542;2023-10-13T14:42:47;23.90;65.00
1405;DHT22;697;51.114;6.542;2023-10-13T14:45:14;23.90;64.80
1405;DHT22;697;51.114;6.542;2023-10-13T14:47:42;23.90;64.60
1405;DHT22;697;51.114;6.542;2023-10-13T14:50:11;23.90;64.50
1405;DHT22;697;51.114;6.542;2023-10-13T14:52:45;23.80;64.90
1405;DHT22;697;51.114;6.542;2023-10-13T14:55:12;23.70;64.60
1405;DHT22;697;51.114;6.542;2023-10-13T14:57:46;23.80;64.60
1405;DHT22;697;51.114;6.542;2023-10-13T15:00:15;23.80;65.20
1405;DHT22;697;51.114;6.542;2023-10-13T15:02:50;23.70;64.30
1405;DHT22;697;51.114;6.542;2023-10-13T15:05:18;23.70;65.20
1405;DHT22;697;51.114;6.542;2023-10-13T15:07:45;23.60;65.00
1405;DHT22;697;51.114;6.542;2023-10-13T15:10:13;23.50;64.90
1405;DHT22;697;51.114;6.542;2023-10-13T15:12:41;23.50;66.60
1405;DHT22;697;51.114;6.542;2023-10-13T15:15:08;23.50;64.50
1405;DHT22;697;51.114;6.542;2023-10-13T15:17:39;23.50;64.40
1405;DHT22;697;51.114;6.542;2023-10-13T15:20:06;23.50;64.40
1405;DHT22;697;51.114;6.542;2023-10-13T15:22:36;23.50;64.40
1405;DHT22;697;51.114;6.542;2023-10-13T15:25:05;23.50;64.40
1405;DHT22;697;51.114;6.542;2023-10-13T15:27:43;23.40;63.90
1405;DHT22;697;51.114;6.542;2023-10-13T15:30:15;23.40;64.50
1405;DHT22;697;51.114;6.542;2023-10-13T15:32:48;23.40;65.00
1405;DHT22;697;51.114;6.542;2023-10-13T15:35:16;23.40;65.30
1405;DHT22;697;51.114;6.542;2023-10-13T15:37:44;23.40;64.70
1405;DHT22;697;51.114;6.542;2023-10-13T15:40:13;23.40;64.90
1405;DHT22;697;51.114;6.542;2023-10-13T15:42:42;23.30;65.30
1405;DHT22;697;51.114;6.542;2023-10-13T15:45:10;23.30;65.00
1405;DHT22;697;51.114;6.542;2023-10-13T15:47:43;23.30;65.30
1405;DHT22;697;51.114;6.542;2023-10-13T15:50:12;23.20;64.20
1405;DHT22;697;51.114;6.542;2023-10-13T15:52:41;23.10;64.80
1405;DHT22;697;51.114;6.542;2023-10-13T15:55:13;23.10;64.90
1405;DHT22;697;51.114;6.542;2023-10-13T15:57:39;23.10;65.30
1405;DHT22;697;51.114;6.542;2023-10-13T16:00:08;23.20;65.90
1405;DHT22;697;51.114;6.542;2023-10-13T16:02:50;23.10;65.90
1405;DHT22;697;51.114;6.542;2023-10-13T16:05:17;23.10;65.70
1405;DHT22;697;51.114;6.542;2023-10-13T16:07:44;23.10;65.90
1405;DHT22;697;51.114;6.542;2023-10-13T16:10:12;23.00;64.80
1405;DHT22;697;51.114;6.542;2023-10-13T16:12:39;23.00;65.80
1405;DHT22;697;51.114;6.542;2023-10-13T16:15:06;23.00;66.00
1405;DHT22;697;51.114;6.542;2023-10-13T16:17:39;23.00;65.90
1405;DHT22;697;51.114;6.542;2023-10-13T16:20:07;23.00;66.00
1405;DHT22;697;51.114;6.542;2023-10-13T16:22:42;23.00;66.20
1405;DHT22;697;51.114;6.542;2023-10-13T16:25:09;22.90;66.40
1405;DHT22;697;51.114;6.542;2023-10-13T16:27:39;22.90;66.40
1405;DHT22;697;51.114;6.542;2023-10-13T16:30:09;22.80;66.70
1405;DHT22;697;51.114;6.542;2023-10-13T16:32:41;22.80;66.80
1405;DHT22;697;51.114;6.542;2023-10-13T16:35:12;22.80;67.30
1405;DHT22;697;51.114;6.542;2023-10-13T16:37:42;22.80;68.00
1405;DHT22;697;51.114;6.542;2023-10-13T16:40:10;22.80;68.00
1405;DHT22;697;51.114;6.542;2023-10-13T16:42:38;22.80;68.00
1405;DHT22;697;51.114;6.542;2023-10-13T16:45:06;22.70;68.50
1405;DHT22;697;51.114;6.542;2023-10-13T16:47:41;22.70;68.00
1405;DHT22;697;51.114;6.542;2023-10-13T16:50:09;22.70;68.60
1405;DHT22;697;51.114;6.542;2023-10-13T16:52:36;22.70;68.00
1405;DHT22;697;51.114;6.542;2023-10-13T16:55:03;22.70;68.00